Airfield :
LOGIN :

Register | Disclaimer

   EN    FR    IT 

 










Legend :    VFR   Marginal VFR   IFR   Intensive IFR   Very Intensive IFR
Visi :
Ceiling :
>= 8 km
>= 3000ft
5 to 8 km
1000 to 3000 ft
1500m to 5 km
500 to 1000 ft
800 to 1500m
200 to 500 ft
< 800m
< 200 ft
Symbols :   Thunderstorms  Fog  Heavy snow  Heavy precipitations  Wind > 20 kt
SIGMETs :     Misc.  Thunderstorms  Icing  Turbulence  Mountain Waves  Volcanic Ashes







- Airport Elevation : 46 ft
- IATA code : GPA


LGRX - Araxos

CURRENT METAR :
  • 092250Z 17009KT 9999 SCT025 14/09 Q1010 RMK FEW080 BLU

EXPIRED METARs :
  • 092150Z VRB03KT 9999 SCT025 10/07 Q1011 RMK FEW080 BLU
  • 092050Z VRB03KT 9999 FEW025 10/06 Q1012 RMK FEW080 BLU

TAF TAF LGRX
Valid from the 09 at 21:00 until the 10 at 06:00 UTC


092000Z 0921/1006 25015KT 9999 FEW015 SCT020 BKN080
PROB30
TEMPO 0921/1006 6000 RA FEW012 BKN020 BKN080
PROB30
TEMPO 1004/1006 4000 TSRA FEW010 FEW018CB BKN020 BKN080
No reported NOTAMs for that airfield.



MET'MAP, your aeronautical weather chart ! - Copyright ORBIFLY December 2007 - Disclaimer

ORBIFLY MET'MAP TEAM :

Programming & Development : Alexandra Zaïnal
Concept & Development : Baudouin d'Aumeries
Co-Development & Prog : Marc-Olivier Méhu
Technical & hardware support : Manuel Goepfert

Contact : metmap@orbifly.com




SOURCES & CREDITS :

   NOAA